sensor_id;sensor_type;location;lat;lon;timestamp;P1;durP1;ratioP1;P2;durP2;ratioP2
417;SDS011;49;48.530;9.200;2022-07-23T00:00:18;12.27;;;7.70;;
417;SDS011;49;48.530;9.200;2022-07-23T00:02:47;10.60;;;7.17;;
417;SDS011;49;48.530;9.200;2022-07-23T00:05:14;17.90;;;9.10;;
417;SDS011;49;48.530;9.200;2022-07-23T00:07:41;15.10;;;8.30;;
417;SDS011;49;48.530;9.200;2022-07-23T00:10:08;11.90;;;9.30;;
417;SDS011;49;48.530;9.200;2022-07-23T00:12:36;13.30;;;9.10;;
417;SDS011;49;48.530;9.200;2022-07-23T00:15:04;19.10;;;9.73;;
417;SDS011;49;48.530;9.200;2022-07-23T00:17:32;16.97;;;10.37;;
417;SDS011;49;48.530;9.200;2022-07-23T00:20:00;11.73;;;10.00;;
417;SDS011;49;48.530;9.200;2022-07-23T00:22:27;13.00;;;8.60;;
417;SDS011;49;48.530;9.200;2022-07-23T00:24:54;10.63;;;7.83;;
417;SDS011;49;48.530;9.200;2022-07-23T00:27:21;12.30;;;9.37;;
417;SDS011;49;48.530;9.200;2022-07-23T00:29:48;13.17;;;10.37;;
417;SDS011;49;48.530;9.200;2022-07-23T00:32:15;12.30;;;9.30;;
417;SDS011;49;48.530;9.200;2022-07-23T00:34:42;15.63;;;10.67;;
417;SDS011;49;48.530;9.200;2022-07-23T00:37:11;17.23;;;9.90;;
417;SDS011;49;48.530;9.200;2022-07-23T00:39:38;11.63;;;9.03;;
417;SDS011;49;48.530;9.200;2022-07-23T00:42:05;22.43;;;9.70;;
417;SDS011;49;48.530;9.200;2022-07-23T00:44:32;13.97;;;8.77;;
417;SDS011;49;48.530;9.200;2022-07-23T00:46:59;11.63;;;7.90;;
417;SDS011;49;48.530;9.200;2022-07-23T00:49:26;13.80;;;8.37;;
417;SDS011;49;48.530;9.200;2022-07-23T00:51:55;11.77;;;8.37;;
417;SDS011;49;48.530;9.200;2022-07-23T00:54:25;13.10;;;7.97;;
417;SDS011;49;48.530;9.200;2022-07-23T00:56:53;12.50;;;7.83;;
417;SDS011;49;48.530;9.200;2022-07-23T00:59:20;19.10;;;8.30;;
417;SDS011;49;48.530;9.200;2022-07-23T01:01:48;12.40;;;7.97;;
417;SDS011;49;48.530;9.200;2022-07-23T01:04:15;14.73;;;7.83;;
417;SDS011;49;48.530;9.200;2022-07-23T01:06:42;11.80;;;7.37;;
417;SDS011;49;48.530;9.200;2022-07-23T01:09:11;8.70;;;7.70;;
417;SDS011;49;48.530;9.200;2022-07-23T01:11:40;14.33;;;7.70;;
417;SDS011;49;48.530;9.200;2022-07-23T01:14:11;10.60;;;6.93;;
417;SDS011;49;48.530;9.200;2022-07-23T01:16:39;27.17;;;7.47;;
417;SDS011;49;48.530;9.200;2022-07-23T01:19:07;13.33;;;7.60;;
417;SDS011;49;48.530;9.200;2022-07-23T01:21:35;12.07;;;6.83;;
417;SDS011;49;48.530;9.200;2022-07-23T01:24:05;8.27;;;7.30;;
417;SDS011;49;48.530;9.200;2022-07-23T01:26:33;11.00;;;7.07;;
417;SDS011;49;48.530;9.200;2022-07-23T01:29:00;9.30;;;6.77;;
417;SDS011;49;48.530;9.200;2022-07-23T01:31:27;10.77;;;7.40;;
417;SDS011;49;48.530;9.200;2022-07-23T01:33:55;8.47;;;6.83;;
417;SDS011;49;48.530;9.200;2022-07-23T01:36:23;12.10;;;7.30;;
417;SDS011;49;48.530;9.200;2022-07-23T01:38:50;8.57;;;6.60;;
417;SDS011;49;48.530;9.200;2022-07-23T01:41:19;10.70;;;6.63;;
417;SDS011;49;48.530;9.200;2022-07-23T01:43:47;28.83;;;7.80;;
417;SDS011;49;48.530;9.200;2022-07-23T01:46:14;14.40;;;6.90;;
417;SDS011;49;48.530;9.200;2022-07-23T01:48:41;13.57;;;7.87;;
417;SDS011;49;48.530;9.200;2022-07-23T01:51:09;12.60;;;8.40;;
417;SDS011;49;48.530;9.200;2022-07-23T01:53:36;10.43;;;8.00;;
417;SDS011;49;48.530;9.200;2022-07-23T01:56:03;9.90;;;7.80;;
417;SDS011;49;48.530;9.200;2022-07-23T01:58:32;9.17;;;6.70;;
417;SDS011;49;48.530;9.200;2022-07-23T02:01:00;11.30;;;6.80;;
417;SDS011;49;48.530;9.200;2022-07-23T02:03:27;14.50;;;12.20;;
417;SDS011;49;48.530;9.200;2022-07-23T02:05:54;14.60;;;10.07;;
417;SDS011;49;48.530;9.200;2022-07-23T02:08:21;16.73;;;10.23;;
417;SDS011;49;48.530;9.200;2022-07-23T02:10:48;12.30;;;8.37;;
417;SDS011;49;48.530;9.200;2022-07-23T02:13:16;19.23;;;9.47;;
417;SDS011;49;48.530;9.200;2022-07-23T02:15:45;10.97;;;9.00;;
417;SDS011;49;48.530;9.200;2022-07-23T02:18:12;19.43;;;10.73;;
417;SDS011;49;48.530;9.200;2022-07-23T02:20:40;11.63;;;8.50;;
417;SDS011;49;48.530;9.200;2022-07-23T02:23:07;13.67;;;8.40;;
417;SDS011;49;48.530;9.200;2022-07-23T02:25:34;18.60;;;7.77;;
417;SDS011;49;48.530;9.200;2022-07-23T02:28:01;7.80;;;6.63;;
417;SDS011;49;48.530;9.200;2022-07-23T02:30:29;10.20;;;6.70;;
417;SDS011;49;48.530;9.200;2022-07-23T02:32:57;10.53;;;7.00;;
417;SDS011;49;48.530;9.200;2022-07-23T02:35:24;9.37;;;6.60;;
417;SDS011;49;48.530;9.200;2022-07-23T02:37:51;9.20;;;6.23;;
417;SDS011;49;48.530;9.200;2022-07-23T02:40:19;13.23;;;7.00;;
417;SDS011;49;48.530;9.200;2022-07-23T02:42:46;10.87;;;6.80;;
417;SDS011;49;48.530;9.200;2022-07-23T02:45:13;9.23;;;7.17;;
417;SDS011;49;48.530;9.200;2022-07-23T02:47:40;8.67;;;6.03;;
417;SDS011;49;48.530;9.200;2022-07-23T02:50:08;16.20;;;6.40;;
417;SDS011;49;48.530;9.200;2022-07-23T02:52:37;11.07;;;6.60;;
417;SDS011;49;48.530;9.200;2022-07-23T02:55:04;11.10;;;7.13;;
417;SDS011;49;48.530;9.200;2022-07-23T02:57:32;6.60;;;5.60;;
417;SDS011;49;48.530;9.200;2022-07-23T02:59:59;8.10;;;6.80;;
417;SDS011;49;48.530;9.200;2022-07-23T03:02:26;9.90;;;6.90;;
417;SDS011;49;48.530;9.200;2022-07-23T03:04:54;9.47;;;6.67;;
417;SDS011;49;48.530;9.200;2022-07-23T03:07:23;9.43;;;6.50;;
417;SDS011;49;48.530;9.200;2022-07-23T03:09:50;8.17;;;6.67;;
417;SDS011;49;48.530;9.200;2022-07-23T03:12:18;10.43;;;6.60;;
417;SDS011;49;48.530;9.200;2022-07-23T03:14:45;10.03;;;7.60;;
417;SDS011;49;48.530;9.200;2022-07-23T03:17:12;8.23;;;6.00;;
417;SDS011;49;48.530;9.200;2022-07-23T03:19:39;10.07;;;7.23;;
417;SDS011;49;48.530;9.200;2022-07-23T03:22:06;8.30;;;6.73;;
417;SDS011;49;48.530;9.200;2022-07-23T03:24:35;13.27;;;7.00;;
417;SDS011;49;48.530;9.200;2022-07-23T03:27:20;10.13;;;6.70;;
417;SDS011;49;48.530;9.200;2022-07-23T03:29:48;9.03;;;6.73;;
417;SDS011;49;48.530;9.200;2022-07-23T03:32:15;13.57;;;6.57;;
417;SDS011;49;48.530;9.200;2022-07-23T03:34:42;13.77;;;7.00;;
417;SDS011;49;48.530;9.200;2022-07-23T03:37:09;11.13;;;7.03;;
417;SDS011;49;48.530;9.200;2022-07-23T03:39:38;13.77;;;6.50;;
417;SDS011;49;48.530;9.200;2022-07-23T03:42:05;7.33;;;6.40;;
417;SDS011;49;48.530;9.200;2022-07-23T03:44:32;12.83;;;7.50;;
417;SDS011;49;48.530;9.200;2022-07-23T03:47:01;8.17;;;6.47;;
417;SDS011;49;48.530;9.200;2022-07-23T03:49:29;10.50;;;6.70;;
417;SDS011;49;48.530;9.200;2022-07-23T03:51:56;13.60;;;6.40;;
417;SDS011;49;48.530;9.200;2022-07-23T03:54:23;8.80;;;6.07;;
417;SDS011;49;48.530;9.200;2022-07-23T03:56:52;7.60;;;5.80;;
417;SDS011;49;48.530;9.200;2022-07-23T03:59:19;9.70;;;6.50;;
417;SDS011;49;48.530;9.200;2022-07-23T04:01:47;12.90;;;6.77;;
417;SDS011;49;48.530;9.200;2022-07-23T04:04:15;8.30;;;6.47;;
417;SDS011;49;48.530;9.200;2022-07-23T04:06:42;10.50;;;6.90;;
417;SDS011;49;48.530;9.200;2022-07-23T04:09:10;9.00;;;7.07;;
417;SDS011;49;48.530;9.200;2022-07-23T04:11:37;9.70;;;7.20;;
417;SDS011;49;48.530;9.200;2022-07-23T04:14:06;9.63;;;6.50;;
417;SDS011;49;48.530;9.200;2022-07-23T04:16:33;9.20;;;6.63;;
417;SDS011;49;48.530;9.200;2022-07-23T04:19:01;8.83;;;6.40;;
417;SDS011;49;48.530;9.200;2022-07-23T04:21:29;8.70;;;7.00;;
417;SDS011;49;48.530;9.200;2022-07-23T04:23:57;13.87;;;6.97;;
417;SDS011;49;48.530;9.200;2022-07-23T04:26:24;8.30;;;6.97;;
417;SDS011;49;48.530;9.200;2022-07-23T04:28:51;14.13;;;6.73;;
417;SDS011;49;48.530;9.200;2022-07-23T04:31:20;14.63;;;7.20;;
417;SDS011;49;48.530;9.200;2022-07-23T04:33:48;16.60;;;8.10;;
417;SDS011;49;48.530;9.200;2022-07-23T04:36:16;12.00;;;7.60;;
417;SDS011;49;48.530;9.200;2022-07-23T04:38:43;9.53;;;7.20;;
417;SDS011;49;48.530;9.200;2022-07-23T04:41:10;18.00;;;6.50;;
417;SDS011;49;48.530;9.200;2022-07-23T04:43:38;11.90;;;6.77;;
417;SDS011;49;48.530;9.200;2022-07-23T04:46:05;13.37;;;7.67;;
417;SDS011;49;48.530;9.200;2022-07-23T04:48:39;21.63;;;6.90;;
417;SDS011;49;48.530;9.200;2022-07-23T04:51:07;11.03;;;7.20;;
417;SDS011;49;48.530;9.200;2022-07-23T04:53:36;19.43;;;6.70;;
417;SDS011;49;48.530;9.200;2022-07-23T04:56:04;13.00;;;6.87;;
417;SDS011;49;48.530;9.200;2022-07-23T04:58:32;10.60;;;7.33;;
417;SDS011;49;48.530;9.200;2022-07-23T05:00:59;17.33;;;8.93;;
417;SDS011;49;48.530;9.200;2022-07-23T05:03:26;12.70;;;7.80;;
417;SDS011;49;48.530;9.200;2022-07-23T05:05:55;17.17;;;7.07;;
417;SDS011;49;48.530;9.200;2022-07-23T05:08:23;20.93;;;7.70;;
417;SDS011;49;48.530;9.200;2022-07-23T05:10:50;13.20;;;6.77;;
417;SDS011;49;48.530;9.200;2022-07-23T05:13:17;9.97;;;6.80;;
417;SDS011;49;48.530;9.200;2022-07-23T05:15:44;8.73;;;6.70;;
417;SDS011;49;48.530;9.200;2022-07-23T05:18:12;14.67;;;7.90;;
417;SDS011;49;48.530;9.200;2022-07-23T05:20:39;10.13;;;7.13;;
417;SDS011;49;48.530;9.200;2022-07-23T05:23:08;8.47;;;6.77;;
417;SDS011;49;48.530;9.200;2022-07-23T05:25:35;11.23;;;7.13;;
417;SDS011;49;48.530;9.200;2022-07-23T05:28:02;14.53;;;7.93;;
417;SDS011;49;48.530;9.200;2022-07-23T05:30:30;7.10;;;6.47;;
417;SDS011;49;48.530;9.200;2022-07-23T05:32:57;12.27;;;7.50;;
417;SDS011;49;48.530;9.200;2022-07-23T05:35:26;11.37;;;7.50;;
417;SDS011;49;48.530;9.200;2022-07-23T05:37:54;8.53;;;6.60;;
417;SDS011;49;48.530;9.200;2022-07-23T05:40:23;11.97;;;7.43;;
417;SDS011;49;48.530;9.200;2022-07-23T05:42:50;14.20;;;7.90;;
417;SDS011;49;48.530;9.200;2022-07-23T05:45:17;12.67;;;7.57;;
417;SDS011;49;48.530;9.200;2022-07-23T05:47:46;11.80;;;7.17;;
417;SDS011;49;48.530;9.200;2022-07-23T05:50:14;16.27;;;7.20;;
417;SDS011;49;48.530;9.200;2022-07-23T05:52:43;15.13;;;7.57;;
417;SDS011;49;48.530;9.200;2022-07-23T05:55:10;10.13;;;6.47;;
417;SDS011;49;48.530;9.200;2022-07-23T05:57:40;8.87;;;6.90;;
417;SDS011;49;48.530;9.200;2022-07-23T06:00:08;11.70;;;7.00;;
417;SDS011;49;48.530;9.200;2022-07-23T06:02:37;9.63;;;6.60;;
417;SDS011;49;48.530;9.200;2022-07-23T06:05:05;10.23;;;6.57;;
417;SDS011;49;48.530;9.200;2022-07-23T06:07:37;10.70;;;7.07;;
417;SDS011;49;48.530;9.200;2022-07-23T06:10:06;18.97;;;6.80;;
417;SDS011;49;48.530;9.200;2022-07-23T06:12:37;9.20;;;6.03;;
417;SDS011;49;48.530;9.200;2022-07-23T06:15:09;13.13;;;6.33;;
417;SDS011;49;48.530;9.200;2022-07-23T06:17:39;9.00;;;5.80;;
417;SDS011;49;48.530;9.200;2022-07-23T06:20:07;9.03;;;6.50;;
417;SDS011;49;48.530;9.200;2022-07-23T06:22:37;6.30;;;5.10;;
417;SDS011;49;48.530;9.200;2022-07-23T06:25:18;12.53;;;6.00;;
417;SDS011;49;48.530;9.200;2022-07-23T06:27:46;10.40;;;6.27;;
417;SDS011;49;48.530;9.200;2022-07-23T06:30:15;6.77;;;5.50;;
417;SDS011;49;48.530;9.200;2022-07-23T06:32:43;6.70;;;5.23;;
417;SDS011;49;48.530;9.200;2022-07-23T06:35:11;10.90;;;5.60;;
417;SDS011;49;48.530;9.200;2022-07-23T06:37:48;11.67;;;5.83;;
417;SDS011;49;48.530;9.200;2022-07-23T06:40:18;11.53;;;5.77;;
417;SDS011;49;48.530;9.200;2022-07-23T06:42:45;11.60;;;6.07;;
417;SDS011;49;48.530;9.200;2022-07-23T06:45:20;11.20;;;6.50;;
417;SDS011;49;48.530;9.200;2022-07-23T06:47:49;7.87;;;5.60;;
417;SDS011;49;48.530;9.200;2022-07-23T06:50:16;12.80;;;5.90;;
417;SDS011;49;48.530;9.200;2022-07-23T06:52:44;9.87;;;6.00;;
417;SDS011;49;48.530;9.200;2022-07-23T06:55:18;8.90;;;5.33;;
417;SDS011;49;48.530;9.200;2022-07-23T06:57:49;11.70;;;5.80;;
417;SDS011;49;48.530;9.200;2022-07-23T07:00:20;7.93;;;5.97;;
417;SDS011;49;48.530;9.200;2022-07-23T07:02:47;9.53;;;5.33;;
417;SDS011;49;48.530;9.200;2022-07-23T07:05:14;19.73;;;6.90;;
417;SDS011;49;48.530;9.200;2022-07-23T07:07:41;12.93;;;6.10;;
417;SDS011;49;48.530;9.200;2022-07-23T07:10:10;10.23;;;6.07;;
417;SDS011;49;48.530;9.200;2022-07-23T07:12:38;14.90;;;5.47;;
417;SDS011;49;48.530;9.200;2022-07-23T07:15:08;15.80;;;6.00;;
417;SDS011;49;48.530;9.200;2022-07-23T07:17:38;7.50;;;4.80;;
417;SDS011;49;48.530;9.200;2022-07-23T07:20:08;6.40;;;5.50;;
417;SDS011;49;48.530;9.200;2022-07-23T07:22:36;8.10;;;6.00;;
417;SDS011;49;48.530;9.200;2022-07-23T07:25:04;14.40;;;6.00;;
417;SDS011;49;48.530;9.200;2022-07-23T07:27:31;8.93;;;5.57;;
417;SDS011;49;48.530;9.200;2022-07-23T07:29:58;7.77;;;6.10;;
417;SDS011;49;48.530;9.200;2022-07-23T07:32:26;9.27;;;6.00;;
417;SDS011;49;48.530;9.200;2022-07-23T07:34:54;9.30;;;6.77;;
417;SDS011;49;48.530;9.200;2022-07-23T07:37:22;16.13;;;6.37;;
417;SDS011;49;48.530;9.200;2022-07-23T07:39:49;10.87;;;5.90;;
417;SDS011;49;48.530;9.200;2022-07-23T07:42:15;10.90;;;6.40;;
417;SDS011;49;48.530;9.200;2022-07-23T07:44:42;6.67;;;5.57;;
417;SDS011;49;48.530;9.200;2022-07-23T07:47:09;12.63;;;6.23;;
417;SDS011;49;48.530;9.200;2022-07-23T07:49:36;8.43;;;6.30;;
417;SDS011;49;48.530;9.200;2022-07-23T07:52:07;9.73;;;6.90;;
417;SDS011;49;48.530;9.200;2022-07-23T07:54:37;7.07;;;6.13;;
417;SDS011;49;48.530;9.200;2022-07-23T07:57:04;11.23;;;6.73;;
417;SDS011;49;48.530;9.200;2022-07-23T07:59:33;27.63;;;7.80;;
417;SDS011;49;48.530;9.200;2022-07-23T08:02:00;17.20;;;6.67;;
417;SDS011;49;48.530;9.200;2022-07-23T08:04:28;11.33;;;6.77;;
417;SDS011;49;48.530;9.200;2022-07-23T08:06:59;8.80;;;6.50;;
417;SDS011;49;48.530;9.200;2022-07-23T08:09:27;7.60;;;5.70;;
417;SDS011;49;48.530;9.200;2022-07-23T08:11:54;10.63;;;6.60;;
417;SDS011;49;48.530;9.200;2022-07-23T08:14:25;9.63;;;6.53;;
417;SDS011;49;48.530;9.200;2022-07-23T08:16:52;13.67;;;7.77;;
417;SDS011;49;48.530;9.200;2022-07-23T08:19:20;11.53;;;6.40;;
417;SDS011;49;48.530;9.200;2022-07-23T08:21:50;9.03;;;6.23;;
417;SDS011;49;48.530;9.200;2022-07-23T08:24:18;8.43;;;5.80;;
417;SDS011;49;48.530;9.200;2022-07-23T08:26:46;11.07;;;7.53;;
417;SDS011;49;48.530;9.200;2022-07-23T08:29:15;8.20;;;6.90;;
417;SDS011;49;48.530;9.200;2022-07-23T08:31:47;9.03;;;6.53;;
417;SDS011;49;48.530;9.200;2022-07-23T08:34:14;8.80;;;6.57;;
417;SDS011;49;48.530;9.200;2022-07-23T08:36:43;11.80;;;6.47;;
417;SDS011;49;48.530;9.200;2022-07-23T08:39:12;10.47;;;6.60;;
417;SDS011;49;48.530;9.200;2022-07-23T08:41:41;13.17;;;7.50;;
417;SDS011;49;48.530;9.200;2022-07-23T08:44:11;11.50;;;6.93;;
417;SDS011;49;48.530;9.200;2022-07-23T08:46:39;6.50;;;5.87;;
417;SDS011;49;48.530;9.200;2022-07-23T08:49:07;7.53;;;6.27;;
417;SDS011;49;48.530;9.200;2022-07-23T08:51:40;13.47;;;6.83;;
417;SDS011;49;48.530;9.200;2022-07-23T08:54:07;10.77;;;6.23;;
417;SDS011;49;48.530;9.200;2022-07-23T08:56:35;10.97;;;6.47;;
417;SDS011;49;48.530;9.200;2022-07-23T08:59:02;8.20;;;6.50;;
417;SDS011;49;48.530;9.200;2022-07-23T09:01:31;11.20;;;7.63;;
417;SDS011;49;48.530;9.200;2022-07-23T09:03:58;7.80;;;6.50;;
417;SDS011;49;48.530;9.200;2022-07-23T09:06:25;9.20;;;6.93;;
417;SDS011;49;48.530;9.200;2022-07-23T09:08:53;13.50;;;7.27;;
417;SDS011;49;48.530;9.200;2022-07-23T09:11:23;16.37;;;7.50;;
417;SDS011;49;48.530;9.200;2022-07-23T09:13:52;9.30;;;6.13;;
417;SDS011;49;48.530;9.200;2022-07-23T09:16:38;8.37;;;6.63;;
417;SDS011;49;48.530;9.200;2022-07-23T09:19:06;12.77;;;6.70;;
417;SDS011;49;48.530;9.200;2022-07-23T09:21:38;12.13;;;6.90;;
417;SDS011;49;48.530;9.200;2022-07-23T09:24:06;8.90;;;5.87;;
417;SDS011;49;48.530;9.200;2022-07-23T09:26:40;7.93;;;6.63;;
417;SDS011;49;48.530;9.200;2022-07-23T09:29:09;10.53;;;5.97;;
417;SDS011;49;48.530;9.200;2022-07-23T09:31:46;8.70;;;5.90;;
417;SDS011;49;48.530;9.200;2022-07-23T09:34:19;12.63;;;5.97;;
417;SDS011;49;48.530;9.200;2022-07-23T09:36:48;7.90;;;6.27;;
417;SDS011;49;48.530;9.200;2022-07-23T09:39:22;12.40;;;6.40;;
417;SDS011;49;48.530;9.200;2022-07-23T09:41:53;8.63;;;6.70;;
417;SDS011;49;48.530;9.200;2022-07-23T09:44:20;12.03;;;6.70;;
417;SDS011;49;48.530;9.200;2022-07-23T09:46:51;9.50;;;5.93;;
417;SDS011;49;48.530;9.200;2022-07-23T09:49:25;16.53;;;7.80;;
417;SDS011;49;48.530;9.200;2022-07-23T09:51:55;11.80;;;7.17;;
417;SDS011;49;48.530;9.200;2022-07-23T09:54:24;8.47;;;6.37;;
417;SDS011;49;48.530;9.200;2022-07-23T09:56:56;7.97;;;6.87;;
417;SDS011;49;48.530;9.200;2022-07-23T09:59:30;9.70;;;6.50;;
417;SDS011;49;48.530;9.200;2022-07-23T10:02:00;8.73;;;6.90;;
417;SDS011;49;48.530;9.200;2022-07-23T10:04:29;11.40;;;7.00;;
417;SDS011;49;48.530;9.200;2022-07-23T10:06:58;9.77;;;6.30;;
417;SDS011;49;48.530;9.200;2022-07-23T10:09:27;10.93;;;6.63;;
417;SDS011;49;48.530;9.200;2022-07-23T10:11:57;8.67;;;6.60;;
417;SDS011;49;48.530;9.200;2022-07-23T10:14:32;8.67;;;6.00;;
417;SDS011;49;48.530;9.200;2022-07-23T10:17:02;11.50;;;6.60;;
417;SDS011;49;48.530;9.200;2022-07-23T10:19:32;8.07;;;6.10;;
417;SDS011;49;48.530;9.200;2022-07-23T10:22:03;11.57;;;6.23;;
417;SDS011;49;48.530;9.200;2022-07-23T10:24:38;10.90;;;6.43;;
417;SDS011;49;48.530;9.200;2022-07-23T10:27:21;9.93;;;6.43;;
417;SDS011;49;48.530;9.200;2022-07-23T10:30:02;9.50;;;6.83;;
417;SDS011;49;48.530;9.200;2022-07-23T10:32:37;10.40;;;7.17;;
417;SDS011;49;48.530;9.200;2022-07-23T10:35:13;9.20;;;6.77;;
417;SDS011;49;48.530;9.200;2022-07-23T10:37:50;16.90;;;7.13;;
417;SDS011;49;48.530;9.200;2022-07-23T10:40:21;8.47;;;6.13;;
417;SDS011;49;48.530;9.200;2022-07-23T10:42:51;11.00;;;6.70;;
417;SDS011;49;48.530;9.200;2022-07-23T10:45:27;11.60;;;7.00;;
417;SDS011;49;48.530;9.200;2022-07-23T10:48:14;10.67;;;6.80;;
417;SDS011;49;48.530;9.200;2022-07-23T10:50:42;8.67;;;6.30;;
417;SDS011;49;48.530;9.200;2022-07-23T10:53:12;9.73;;;6.33;;
417;SDS011;49;48.530;9.200;2022-07-23T10:55:47;9.23;;;6.37;;
417;SDS011;49;48.530;9.200;2022-07-23T10:58:20;9.70;;;6.77;;
417;SDS011;49;48.530;9.200;2022-07-23T11:00:49;11.80;;;7.10;;
417;SDS011;49;48.530;9.200;2022-07-23T11:06:09;11.13;;;7.70;;
417;SDS011;49;48.530;9.200;2022-07-23T11:08:36;10.27;;;6.93;;
417;SDS011;49;48.530;9.200;2022-07-23T11:11:09;16.13;;;7.30;;
417;SDS011;49;48.530;9.200;2022-07-23T11:13:41;9.33;;;6.27;;
417;SDS011;49;48.530;9.200;2022-07-23T11:16:19;13.03;;;7.43;;
417;SDS011;49;48.530;9.200;2022-07-23T11:21:46;7.77;;;7.10;;
417;SDS011;49;48.530;9.200;2022-07-23T11:24:19;11.27;;;7.60;;
417;SDS011;49;48.530;9.200;2022-07-23T11:26:51;13.50;;;6.60;;
417;SDS011;49;48.530;9.200;2022-07-23T11:38:03;10.20;;;7.00;;
417;SDS011;49;48.530;9.200;2022-07-23T11:40:31;11.00;;;6.73;;
417;SDS011;49;48.530;9.200;2022-07-23T11:43:00;20.50;;;6.57;;
417;SDS011;49;48.530;9.200;2022-07-23T11:45:31;13.90;;;6.93;;
417;SDS011;49;48.530;9.200;2022-07-23T11:48:00;7.90;;;6.50;;
417;SDS011;49;48.530;9.200;2022-07-23T11:50:31;11.40;;;7.20;;
417;SDS011;49;48.530;9.200;2022-07-23T11:53:01;9.00;;;7.50;;
417;SDS011;49;48.530;9.200;2022-07-23T11:55:29;13.57;;;6.90;;
417;SDS011;49;48.530;9.200;2022-07-23T11:57:57;9.33;;;6.40;;
417;SDS011;49;48.530;9.200;2022-07-23T12:00:25;9.03;;;6.90;;
417;SDS011;49;48.530;9.200;2022-07-23T12:02:56;15.40;;;6.80;;
417;SDS011;49;48.530;9.200;2022-07-23T12:05:27;11.30;;;6.17;;
417;SDS011;49;48.530;9.200;2022-07-23T12:08:00;8.67;;;5.93;;
417;SDS011;49;48.530;9.200;2022-07-23T12:10:30;11.27;;;6.47;;
417;SDS011;49;48.530;9.200;2022-07-23T12:13:01;8.80;;;6.30;;
417;SDS011;49;48.530;9.200;2022-07-23T12:15:30;14.70;;;6.83;;
417;SDS011;49;48.530;9.200;2022-07-23T12:18:04;10.13;;;6.17;;
417;SDS011;49;48.530;9.200;2022-07-23T12:20:33;9.63;;;6.70;;
417;SDS011;49;48.530;9.200;2022-07-23T12:23:04;11.37;;;6.10;;
417;SDS011;49;48.530;9.200;2022-07-23T12:25:33;10.33;;;6.00;;
417;SDS011;49;48.530;9.200;2022-07-23T12:28:03;9.63;;;6.73;;
417;SDS011;49;48.530;9.200;2022-07-23T12:30:33;6.43;;;5.40;;
417;SDS011;49;48.530;9.200;2022-07-23T12:33:04;8.27;;;6.47;;
417;SDS011;49;48.530;9.200;2022-07-23T12:35:34;9.13;;;6.27;;
417;SDS011;49;48.530;9.200;2022-07-23T12:38:13;7.00;;;5.87;;
417;SDS011;49;48.530;9.200;2022-07-23T12:40:45;14.83;;;6.50;;
417;SDS011;49;48.530;9.200;2022-07-23T12:43:18;10.30;;;6.67;;
417;SDS011;49;48.530;9.200;2022-07-23T12:45:47;12.00;;;7.17;;
417;SDS011;49;48.530;9.200;2022-07-23T12:48:20;7.97;;;6.27;;
417;SDS011;49;48.530;9.200;2022-07-23T12:50:50;8.90;;;5.93;;
417;SDS011;49;48.530;9.200;2022-07-23T12:53:27;8.77;;;6.23;;
417;SDS011;49;48.530;9.200;2022-07-23T12:56:03;9.57;;;6.87;;
417;SDS011;49;48.530;9.200;2022-07-23T12:58:39;6.97;;;5.93;;
417;SDS011;49;48.530;9.200;2022-07-23T13:01:27;13.30;;;7.20;;
417;SDS011;49;48.530;9.200;2022-07-23T13:04:02;7.67;;;5.73;;
417;SDS011;49;48.530;9.200;2022-07-23T13:06:32;10.43;;;6.20;;
417;SDS011;49;48.530;9.200;2022-07-23T13:09:02;13.90;;;6.10;;
417;SDS011;49;48.530;9.200;2022-07-23T13:11:35;9.07;;;5.87;;
417;SDS011;49;48.530;9.200;2022-07-23T13:14:04;8.40;;;6.10;;
417;SDS011;49;48.530;9.200;2022-07-23T13:16:32;12.63;;;5.97;;
417;SDS011;49;48.530;9.200;2022-07-23T13:19:00;12.07;;;5.87;;
417;SDS011;49;48.530;9.200;2022-07-23T13:21:29;7.10;;;5.50;;
417;SDS011;49;48.530;9.200;2022-07-23T13:23:57;11.90;;;5.77;;
417;SDS011;49;48.530;9.200;2022-07-23T13:26:26;13.53;;;5.70;;
417;SDS011;49;48.530;9.200;2022-07-23T13:28:56;10.27;;;6.50;;
417;SDS011;49;48.530;9.200;2022-07-23T13:31:23;13.23;;;5.70;;
417;SDS011;49;48.530;9.200;2022-07-23T13:33:55;8.67;;;5.50;;
417;SDS011;49;48.530;9.200;2022-07-23T13:36:24;11.10;;;5.87;;
417;SDS011;49;48.530;9.200;2022-07-23T13:38:56;9.40;;;5.77;;
417;SDS011;49;48.530;9.200;2022-07-23T13:41:30;8.77;;;5.50;;
417;SDS011;49;48.530;9.200;2022-07-23T13:43:59;10.90;;;6.37;;
417;SDS011;49;48.530;9.200;2022-07-23T13:46:27;8.77;;;6.00;;
417;SDS011;49;48.530;9.200;2022-07-23T13:48:56;9.43;;;6.37;;
417;SDS011;49;48.530;9.200;2022-07-23T13:51:26;8.80;;;5.80;;
417;SDS011;49;48.530;9.200;2022-07-23T13:53:53;7.77;;;6.07;;
417;SDS011;49;48.530;9.200;2022-07-23T13:56:25;7.80;;;6.17;;
417;SDS011;49;48.530;9.200;2022-07-23T13:58:54;6.70;;;5.63;;
417;SDS011;49;48.530;9.200;2022-07-23T14:01:30;14.43;;;6.00;;
417;SDS011;49;48.530;9.200;2022-07-23T14:04:06;18.10;;;6.23;;
417;SDS011;49;48.530;9.200;2022-07-23T14:06:34;14.90;;;6.80;;
417;SDS011;49;48.530;9.200;2022-07-23T14:09:04;7.33;;;5.33;;
417;SDS011;49;48.530;9.200;2022-07-23T14:11:35;9.33;;;5.87;;
417;SDS011;49;48.530;9.200;2022-07-23T14:14:09;19.43;;;7.13;;
417;SDS011;49;48.530;9.200;2022-07-23T14:17:06;7.27;;;6.23;;
417;SDS011;49;48.530;9.200;2022-07-23T14:20:13;8.60;;;6.30;;
417;SDS011;49;48.530;9.200;2022-07-23T14:25:21;7.97;;;6.40;;
417;SDS011;49;48.530;9.200;2022-07-23T14:27:49;9.17;;;6.47;;
417;SDS011;49;48.530;9.200;2022-07-23T14:30:25;9.37;;;6.07;;
417;SDS011;49;48.530;9.200;2022-07-23T14:38:01;6.97;;;6.00;;
417;SDS011;49;48.530;9.200;2022-07-23T14:40:36;14.33;;;6.43;;
417;SDS011;49;48.530;9.200;2022-07-23T14:43:05;10.70;;;6.67;;
417;SDS011;49;48.530;9.200;2022-07-23T14:45:35;10.70;;;6.30;;
417;SDS011;49;48.530;9.200;2022-07-23T14:48:06;12.50;;;5.60;;
417;SDS011;49;48.530;9.200;2022-07-23T14:50:38;9.93;;;6.43;;
417;SDS011;49;48.530;9.200;2022-07-23T14:53:21;10.47;;;5.30;;
417;SDS011;49;48.530;9.200;2022-07-23T14:56:03;9.67;;;5.97;;
417;SDS011;49;48.530;9.200;2022-07-23T14:58:48;9.70;;;5.97;;
417;SDS011;49;48.530;9.200;2022-07-23T15:01:22;6.23;;;5.70;;
417;SDS011;49;48.530;9.200;2022-07-23T15:03:50;8.07;;;5.50;;
417;SDS011;49;48.530;9.200;2022-07-23T15:06:17;10.00;;;6.17;;
417;SDS011;49;48.530;9.200;2022-07-23T15:08:45;12.97;;;6.50;;
417;SDS011;49;48.530;9.200;2022-07-23T15:11:12;7.90;;;6.20;;
417;SDS011;49;48.530;9.200;2022-07-23T15:13:41;7.80;;;5.70;;
417;SDS011;49;48.530;9.200;2022-07-23T15:16:11;13.63;;;7.20;;
417;SDS011;49;48.530;9.200;2022-07-23T15:18:46;11.97;;;6.07;;
417;SDS011;49;48.530;9.200;2022-07-23T15:21:21;9.90;;;6.20;;
417;SDS011;49;48.530;9.200;2022-07-23T15:23:48;6.73;;;5.80;;
417;SDS011;49;48.530;9.200;2022-07-23T15:26:21;10.40;;;5.60;;
417;SDS011;49;48.530;9.200;2022-07-23T15:28:49;6.83;;;6.10;;
417;SDS011;49;48.530;9.200;2022-07-23T15:31:19;11.80;;;5.90;;
417;SDS011;49;48.530;9.200;2022-07-23T15:33:48;9.50;;;6.10;;
417;SDS011;49;48.530;9.200;2022-07-23T15:36:17;8.67;;;6.13;;
417;SDS011;49;48.530;9.200;2022-07-23T15:39:02;12.77;;;6.20;;
417;SDS011;49;48.530;9.200;2022-07-23T15:41:45;7.20;;;6.17;;
417;SDS011;49;48.530;9.200;2022-07-23T15:44:12;12.57;;;5.73;;
417;SDS011;49;48.530;9.200;2022-07-23T15:46:40;8.50;;;5.67;;
417;SDS011;49;48.530;9.200;2022-07-23T15:49:18;10.03;;;5.87;;
417;SDS011;49;48.530;9.200;2022-07-23T15:52:00;9.07;;;6.43;;
417;SDS011;49;48.530;9.200;2022-07-23T15:54:27;7.20;;;5.97;;
417;SDS011;49;48.530;9.200;2022-07-23T15:56:54;14.33;;;6.07;;
417;SDS011;49;48.530;9.200;2022-07-23T15:59:25;7.10;;;6.00;;
417;SDS011;49;48.530;9.200;2022-07-23T16:01:52;10.30;;;6.17;;
417;SDS011;49;48.530;9.200;2022-07-23T16:04:23;13.07;;;6.10;;
417;SDS011;49;48.530;9.200;2022-07-23T16:06:51;10.73;;;6.50;;
417;SDS011;49;48.530;9.200;2022-07-23T16:09:21;7.40;;;5.57;;
417;SDS011;49;48.530;9.200;2022-07-23T16:11:48;17.23;;;5.97;;
417;SDS011;49;48.530;9.200;2022-07-23T16:14:16;8.70;;;6.27;;
417;SDS011;49;48.530;9.200;2022-07-23T16:16:46;9.63;;;6.50;;
417;SDS011;49;48.530;9.200;2022-07-23T16:19:18;10.90;;;6.23;;
417;SDS011;49;48.530;9.200;2022-07-23T16:21:47;8.40;;;6.23;;
417;SDS011;49;48.530;9.200;2022-07-23T16:24:16;9.73;;;6.40;;
417;SDS011;49;48.530;9.200;2022-07-23T16:26:43;8.10;;;5.90;;
417;SDS011;49;48.530;9.200;2022-07-23T16:29:11;10.80;;;6.53;;